sensor_id;sensor_type;location;lat;lon;timestamp;temperature;humidity
35246;DHT22;21379;50.962;6.960;2023-01-13T00:02:25;11.70;99.90
35246;DHT22;21379;50.962;6.960;2023-01-13T00:04:52;11.70;99.90
35246;DHT22;21379;50.962;6.960;2023-01-13T00:07:19;11.60;99.90
35246;DHT22;21379;50.962;6.960;2023-01-13T00:09:47;11.60;99.90
35246;DHT22;21379;50.962;6.960;2023-01-13T00:12:14;11.70;99.90
35246;DHT22;21379;50.962;6.960;2023-01-13T00:14:40;11.70;99.90
35246;DHT22;21379;50.962;6.960;2023-01-13T00:17:07;11.70;99.90
35246;DHT22;21379;50.962;6.960;2023-01-13T00:19:34;11.70;99.90
35246;DHT22;21379;50.962;6.960;2023-01-13T00:22:01;11.50;99.90
35246;DHT22;21379;50.962;6.960;2023-01-13T00:24:27;11.30;99.90
35246;DHT22;21379;50.962;6.960;2023-01-13T00:26:56;11.30;99.90
35246;DHT22;21379;50.962;6.960;2023-01-13T00:29:22;11.30;99.90
35246;DHT22;21379;50.962;6.960;2023-01-13T00:31:49;11.20;99.90
35246;DHT22;21379;50.962;6.960;2023-01-13T00:34:16;11.00;99.90
35246;DHT22;21379;50.962;6.960;2023-01-13T00:36:43;10.80;99.90
35246;DHT22;21379;50.962;6.960;2023-01-13T00:39:10;10.50;99.90
35246;DHT22;21379;50.962;6.960;2023-01-13T00:41:36;10.30;99.90
35246;DHT22;21379;50.962;6.960;2023-01-13T00:44:22;10.20;99.90
35246;DHT22;21379;50.962;6.960;2023-01-13T00:46:49;10.20;99.90
35246;DHT22;21379;50.962;6.960;2023-01-13T00:49:16;10.10;99.90
35246;DHT22;21379;50.962;6.960;2023-01-13T00:51:42;10.10;99.90
35246;DHT22;21379;50.962;6.960;2023-01-13T00:54:09;10.10;99.90
35246;DHT22;21379;50.962;6.960;2023-01-13T00:56:36;10.10;99.90
35246;DHT22;21379;50.962;6.960;2023-01-13T00:59:03;10.10;99.90
35246;DHT22;21379;50.962;6.960;2023-01-13T01:01:31;10.10;99.90
35246;DHT22;21379;50.962;6.960;2023-01-13T01:03:58;10.20;99.90
35246;DHT22;21379;50.962;6.960;2023-01-13T01:06:26;10.20;99.90
35246;DHT22;21379;50.962;6.960;2023-01-13T01:08:54;10.20;99.90
35246;DHT22;21379;50.962;6.960;2023-01-13T01:11:22;10.20;99.90
35246;DHT22;21379;50.962;6.960;2023-01-13T01:13:50;10.20;99.90
35246;DHT22;21379;50.962;6.960;2023-01-13T01:16:19;10.30;99.90
35246;DHT22;21379;50.962;6.960;2023-01-13T01:18:49;10.20;99.90
35246;DHT22;21379;50.962;6.960;2023-01-13T01:21:17;10.20;99.90
35246;DHT22;21379;50.962;6.960;2023-01-13T01:23:44;10.20;99.90
35246;DHT22;21379;50.962;6.960;2023-01-13T01:26:13;10.20;99.90
35246;DHT22;21379;50.962;6.960;2023-01-13T01:28:41;10.20;99.90
35246;DHT22;21379;50.962;6.960;2023-01-13T01:31:09;10.20;99.90
35246;DHT22;21379;50.962;6.960;2023-01-13T01:33:36;10.30;99.90
35246;DHT22;21379;50.962;6.960;2023-01-13T01:36:08;10.40;99.90
35246;DHT22;21379;50.962;6.960;2023-01-13T01:38:35;10.50;99.90
35246;DHT22;21379;50.962;6.960;2023-01-13T01:41:02;10.50;99.90
35246;DHT22;21379;50.962;6.960;2023-01-13T01:43:48;10.40;99.90
35246;DHT22;21379;50.962;6.960;2023-01-13T01:46:33;10.30;99.90
35246;DHT22;21379;50.962;6.960;2023-01-13T01:49:09;10.10;99.90
35246;DHT22;21379;50.962;6.960;2023-01-13T01:51:42;9.90;99.90
35246;DHT22;21379;50.962;6.960;2023-01-13T01:54:12;9.80;99.90
35246;DHT22;21379;50.962;6.960;2023-01-13T01:56:42;9.70;99.90
35246;DHT22;21379;50.962;6.960;2023-01-13T01:59:10;9.60;99.90
35246;DHT22;21379;50.962;6.960;2023-01-13T02:01:38;9.40;99.90
35246;DHT22;21379;50.962;6.960;2023-01-13T02:04:11;9.30;99.90
35246;DHT22;21379;50.962;6.960;2023-01-13T02:06:41;9.30;99.90
35246;DHT22;21379;50.962;6.960;2023-01-13T02:09:08;9.30;99.90
35246;DHT22;21379;50.962;6.960;2023-01-13T02:11:35;9.30;99.90
35246;DHT22;21379;50.962;6.960;2023-01-13T02:14:21;9.30;99.90
35246;DHT22;21379;50.962;6.960;2023-01-13T02:17:00;9.30;99.90
35246;DHT22;21379;50.962;6.960;2023-01-13T02:20:02;9.30;99.90
35246;DHT22;21379;50.962;6.960;2023-01-13T02:26:14;9.20;99.90
35246;DHT22;21379;50.962;6.960;2023-01-13T02:28:56;9.30;99.90
35246;DHT22;21379;50.962;6.960;2023-01-13T02:31:50;9.30;99.90
35246;DHT22;21379;50.962;6.960;2023-01-13T02:34:23;9.30;99.90
35246;DHT22;21379;50.962;6.960;2023-01-13T02:36:58;9.40;99.90
35246;DHT22;21379;50.962;6.960;2023-01-13T02:39:31;9.40;99.90
35246;DHT22;21379;50.962;6.960;2023-01-13T02:42:06;9.40;99.90
35246;DHT22;21379;50.962;6.960;2023-01-13T02:44:56;9.40;99.90
35246;DHT22;21379;50.962;6.960;2023-01-13T02:47:26;9.50;99.90
35246;DHT22;21379;50.962;6.960;2023-01-13T02:49:57;9.50;99.90
35246;DHT22;21379;50.962;6.960;2023-01-13T02:52:30;9.50;99.90
35246;DHT22;21379;50.962;6.960;2023-01-13T02:55:02;9.50;99.90
35246;DHT22;21379;50.962;6.960;2023-01-13T02:57:31;9.50;99.90
35246;DHT22;21379;50.962;6.960;2023-01-13T03:00:00;9.60;99.90
35246;DHT22;21379;50.962;6.960;2023-01-13T03:02:30;9.60;99.90
35246;DHT22;21379;50.962;6.960;2023-01-13T03:04:58;9.60;99.90
35246;DHT22;21379;50.962;6.960;2023-01-13T03:07:46;9.50;99.90
35246;DHT22;21379;50.962;6.960;2023-01-13T03:10:26;9.40;99.90
35246;DHT22;21379;50.962;6.960;2023-01-13T03:12:58;9.30;99.90
35246;DHT22;21379;50.962;6.960;2023-01-13T03:15:36;9.40;99.90
35246;DHT22;21379;50.962;6.960;2023-01-13T03:18:17;9.50;99.90
35246;DHT22;21379;50.962;6.960;2023-01-13T03:20:53;9.50;99.90
35246;DHT22;21379;50.962;6.960;2023-01-13T03:23:29;9.50;99.90
35246;DHT22;21379;50.962;6.960;2023-01-13T03:26:04;9.60;99.90
35246;DHT22;21379;50.962;6.960;2023-01-13T03:28:38;9.60;99.90
35246;DHT22;21379;50.962;6.960;2023-01-13T03:31:10;9.50;99.90
35246;DHT22;21379;50.962;6.960;2023-01-13T03:33:44;9.60;99.90
35246;DHT22;21379;50.962;6.960;2023-01-13T03:36:13;9.50;99.90
35246;DHT22;21379;50.962;6.960;2023-01-13T03:38:43;9.40;99.90
35246;DHT22;21379;50.962;6.960;2023-01-13T03:41:17;9.30;99.90
35246;DHT22;21379;50.962;6.960;2023-01-13T03:43:49;9.30;99.90
35246;DHT22;21379;50.962;6.960;2023-01-13T03:46:43;9.30;99.90
35246;DHT22;21379;50.962;6.960;2023-01-13T03:49:18;9.30;99.90
35246;DHT22;21379;50.962;6.960;2023-01-13T03:51:48;9.30;99.90
35246;DHT22;21379;50.962;6.960;2023-01-13T03:54:19;9.30;99.90
35246;DHT22;21379;50.962;6.960;2023-01-13T03:56:50;9.40;99.90
35246;DHT22;21379;50.962;6.960;2023-01-13T03:59:24;9.40;99.90
35246;DHT22;21379;50.962;6.960;2023-01-13T04:01:58;9.50;99.90
35246;DHT22;21379;50.962;6.960;2023-01-13T04:04:31;9.50;99.90
35246;DHT22;21379;50.962;6.960;2023-01-13T04:07:04;9.50;99.90
35246;DHT22;21379;50.962;6.960;2023-01-13T04:09:42;9.60;99.90
35246;DHT22;21379;50.962;6.960;2023-01-13T04:12:17;9.60;99.90
35246;DHT22;21379;50.962;6.960;2023-01-13T04:14:46;9.50;99.90
35246;DHT22;21379;50.962;6.960;2023-01-13T04:17:14;9.40;99.90
35246;DHT22;21379;50.962;6.960;2023-01-13T04:19:43;9.30;99.90
35246;DHT22;21379;50.962;6.960;2023-01-13T04:22:10;9.40;99.90
35246;DHT22;21379;50.962;6.960;2023-01-13T04:24:36;9.30;99.90
35246;DHT22;21379;50.962;6.960;2023-01-13T04:27:03;9.40;99.90
35246;DHT22;21379;50.962;6.960;2023-01-13T04:29:30;9.30;99.90
35246;DHT22;21379;50.962;6.960;2023-01-13T04:31:57;9.20;99.90
35246;DHT22;21379;50.962;6.960;2023-01-13T04:34:24;9.20;99.90
35246;DHT22;21379;50.962;6.960;2023-01-13T04:36:52;9.10;99.90
35246;DHT22;21379;50.962;6.960;2023-01-13T04:39:19;9.00;99.90
35246;DHT22;21379;50.962;6.960;2023-01-13T04:41:45;9.00;99.90
35246;DHT22;21379;50.962;6.960;2023-01-13T04:44:27;9.00;99.90
35246;DHT22;21379;50.962;6.960;2023-01-13T04:46:55;9.00;99.90
35246;DHT22;21379;50.962;6.960;2023-01-13T04:49:22;9.00;99.90
35246;DHT22;21379;50.962;6.960;2023-01-13T04:51:49;9.00;99.90
35246;DHT22;21379;50.962;6.960;2023-01-13T04:54:18;9.00;99.90
35246;DHT22;21379;50.962;6.960;2023-01-13T04:56:45;8.90;99.90
35246;DHT22;21379;50.962;6.960;2023-01-13T04:59:12;8.90;99.90
35246;DHT22;21379;50.962;6.960;2023-01-13T05:01:39;9.00;99.90
35246;DHT22;21379;50.962;6.960;2023-01-13T05:04:07;9.00;99.90
35246;DHT22;21379;50.962;6.960;2023-01-13T05:06:34;9.10;99.90
35246;DHT22;21379;50.962;6.960;2023-01-13T05:09:01;9.10;99.90
35246;DHT22;21379;50.962;6.960;2023-01-13T05:11:29;9.10;99.90
35246;DHT22;21379;50.962;6.960;2023-01-13T05:14:14;9.10;99.90
35246;DHT22;21379;50.962;6.960;2023-01-13T05:16:58;9.10;99.90
35246;DHT22;21379;50.962;6.960;2023-01-13T05:19:28;9.00;99.90
35246;DHT22;21379;50.962;6.960;2023-01-13T05:21:56;9.10;99.90
35246;DHT22;21379;50.962;6.960;2023-01-13T05:24:40;9.10;99.90
35246;DHT22;21379;50.962;6.960;2023-01-13T05:27:26;9.00;99.90
35246;DHT22;21379;50.962;6.960;2023-01-13T05:29:53;8.90;99.90
35246;DHT22;21379;50.962;6.960;2023-01-13T05:32:20;8.80;99.90
35246;DHT22;21379;50.962;6.960;2023-01-13T05:34:47;8.90;99.90
35246;DHT22;21379;50.962;6.960;2023-01-13T05:37:14;8.90;99.90
35246;DHT22;21379;50.962;6.960;2023-01-13T05:39:41;8.90;99.90
35246;DHT22;21379;50.962;6.960;2023-01-13T05:42:27;8.80;99.90
35246;DHT22;21379;50.962;6.960;2023-01-13T05:45:11;9.00;99.90
35246;DHT22;21379;50.962;6.960;2023-01-13T05:47:38;9.00;99.90
35246;DHT22;21379;50.962;6.960;2023-01-13T05:50:05;9.00;99.90
35246;DHT22;21379;50.962;6.960;2023-01-13T05:52:32;9.10;99.90
35246;DHT22;21379;50.962;6.960;2023-01-13T05:54:59;9.20;99.90
35246;DHT22;21379;50.962;6.960;2023-01-13T05:57:27;9.20;99.90
35246;DHT22;21379;50.962;6.960;2023-01-13T05:59:54;9.10;99.90
35246;DHT22;21379;50.962;6.960;2023-01-13T06:02:21;9.10;99.90
35246;DHT22;21379;50.962;6.960;2023-01-13T06:04:47;9.10;99.90
35246;DHT22;21379;50.962;6.960;2023-01-13T06:07:14;9.10;99.90
35246;DHT22;21379;50.962;6.960;2023-01-13T06:09:41;9.10;99.90
35246;DHT22;21379;50.962;6.960;2023-01-13T06:12:10;9.10;99.90
35246;DHT22;21379;50.962;6.960;2023-01-13T06:14:38;9.10;99.90
35246;DHT22;21379;50.962;6.960;2023-01-13T06:17:06;9.10;99.90
35246;DHT22;21379;50.962;6.960;2023-01-13T06:19:33;9.20;99.90
35246;DHT22;21379;50.962;6.960;2023-01-13T06:22:06;9.10;99.90
35246;DHT22;21379;50.962;6.960;2023-01-13T06:24:34;9.10;99.90
35246;DHT22;21379;50.962;6.960;2023-01-13T06:27:02;9.10;99.90
35246;DHT22;21379;50.962;6.960;2023-01-13T06:29:29;9.20;99.90
35246;DHT22;21379;50.962;6.960;2023-01-13T06:31:58;9.20;99.90
35246;DHT22;21379;50.962;6.960;2023-01-13T06:34:28;9.20;99.90
35246;DHT22;21379;50.962;6.960;2023-01-13T06:36:55;9.20;99.90
35246;DHT22;21379;50.962;6.960;2023-01-13T06:39:25;9.30;99.90
35246;DHT22;21379;50.962;6.960;2023-01-13T06:41:56;9.30;99.90
35246;DHT22;21379;50.962;6.960;2023-01-13T06:44:40;9.20;99.90
35246;DHT22;21379;50.962;6.960;2023-01-13T06:47:09;9.20;99.90
35246;DHT22;21379;50.962;6.960;2023-01-13T06:49:36;9.20;99.90
35246;DHT22;21379;50.962;6.960;2023-01-13T06:52:03;9.10;99.90
35246;DHT22;21379;50.962;6.960;2023-01-13T06:54:30;9.10;99.90
35246;DHT22;21379;50.962;6.960;2023-01-13T06:56:59;9.20;99.90
35246;DHT22;21379;50.962;6.960;2023-01-13T06:59:25;9.20;99.90
35246;DHT22;21379;50.962;6.960;2023-01-13T07:01:52;9.10;99.90
35246;DHT22;21379;50.962;6.960;2023-01-13T07:04:20;9.10;99.90
35246;DHT22;21379;50.962;6.960;2023-01-13T07:06:47;9.20;99.90
35246;DHT22;21379;50.962;6.960;2023-01-13T07:09:14;9.20;99.90
35246;DHT22;21379;50.962;6.960;2023-01-13T07:11:41;9.20;99.90
35246;DHT22;21379;50.962;6.960;2023-01-13T07:14:08;9.30;99.90
35246;DHT22;21379;50.962;6.960;2023-01-13T07:16:52;9.30;99.90
35246;DHT22;21379;50.962;6.960;2023-01-13T07:19:20;9.20;99.90
35246;DHT22;21379;50.962;6.960;2023-01-13T07:21:49;9.20;99.90
35246;DHT22;21379;50.962;6.960;2023-01-13T07:24:16;9.20;99.90
35246;DHT22;21379;50.962;6.960;2023-01-13T07:26:43;9.20;99.90
35246;DHT22;21379;50.962;6.960;2023-01-13T07:29:10;9.10;99.90
35246;DHT22;21379;50.962;6.960;2023-01-13T07:31:37;9.00;99.90
35246;DHT22;21379;50.962;6.960;2023-01-13T07:34:04;9.10;99.90
35246;DHT22;21379;50.962;6.960;2023-01-13T07:36:33;9.00;99.90
35246;DHT22;21379;50.962;6.960;2023-01-13T07:39:00;9.00;99.90
35246;DHT22;21379;50.962;6.960;2023-01-13T07:41:27;9.00;99.90
35246;DHT22;21379;50.962;6.960;2023-01-13T07:44:11;9.00;99.90
35246;DHT22;21379;50.962;6.960;2023-01-13T07:46:38;8.90;99.90
35246;DHT22;21379;50.962;6.960;2023-01-13T07:49:06;8.90;99.90
35246;DHT22;21379;50.962;6.960;2023-01-13T07:51:36;8.90;99.90
35246;DHT22;21379;50.962;6.960;2023-01-13T07:54:03;8.90;99.90
35246;DHT22;21379;50.962;6.960;2023-01-13T07:56:30;8.90;99.90
35246;DHT22;21379;50.962;6.960;2023-01-13T07:58:58;8.80;99.90
35246;DHT22;21379;50.962;6.960;2023-01-13T08:01:25;8.80;99.90
35246;DHT22;21379;50.962;6.960;2023-01-13T08:03:53;8.70;99.90
35246;DHT22;21379;50.962;6.960;2023-01-13T08:06:21;8.70;99.90
35246;DHT22;21379;50.962;6.960;2023-01-13T08:08:49;8.70;99.90
35246;DHT22;21379;50.962;6.960;2023-01-13T08:11:16;8.60;99.90
35246;DHT22;21379;50.962;6.960;2023-01-13T08:13:43;8.70;99.90
35246;DHT22;21379;50.962;6.960;2023-01-13T08:16:12;8.60;99.90
35246;DHT22;21379;50.962;6.960;2023-01-13T08:18:39;8.70;99.90
35246;DHT22;21379;50.962;6.960;2023-01-13T08:21:08;8.70;99.90
35246;DHT22;21379;50.962;6.960;2023-01-13T08:23:36;8.70;99.90
35246;DHT22;21379;50.962;6.960;2023-01-13T08:26:05;8.70;99.90
35246;DHT22;21379;50.962;6.960;2023-01-13T08:28:33;8.80;99.90
35246;DHT22;21379;50.962;6.960;2023-01-13T08:31:00;8.80;99.90
35246;DHT22;21379;50.962;6.960;2023-01-13T08:33:27;8.80;99.90
35246;DHT22;21379;50.962;6.960;2023-01-13T08:35:55;8.90;99.90
35246;DHT22;21379;50.962;6.960;2023-01-13T08:38:22;8.90;99.90
35246;DHT22;21379;50.962;6.960;2023-01-13T08:40:49;8.80;99.90
35246;DHT22;21379;50.962;6.960;2023-01-13T08:43:17;8.90;99.90
35246;DHT22;21379;50.962;6.960;2023-01-13T08:45:44;8.90;99.90
35246;DHT22;21379;50.962;6.960;2023-01-13T08:48:11;8.90;99.90
35246;DHT22;21379;50.962;6.960;2023-01-13T08:50:38;8.90;99.90
35246;DHT22;21379;50.962;6.960;2023-01-13T08:53:04;8.90;99.90
35246;DHT22;21379;50.962;6.960;2023-01-13T08:55:31;9.00;99.90
35246;DHT22;21379;50.962;6.960;2023-01-13T08:57:58;9.00;99.90
35246;DHT22;21379;50.962;6.960;2023-01-13T09:00:26;9.00;99.90
35246;DHT22;21379;50.962;6.960;2023-01-13T09:02:53;9.00;99.90
35246;DHT22;21379;50.962;6.960;2023-01-13T09:05:20;9.10;99.90
35246;DHT22;21379;50.962;6.960;2023-01-13T09:07:47;9.20;99.90
35246;DHT22;21379;50.962;6.960;2023-01-13T09:10:14;9.20;99.90
35246;DHT22;21379;50.962;6.960;2023-01-13T09:12:41;9.20;99.90
35246;DHT22;21379;50.962;6.960;2023-01-13T09:15:27;9.20;99.90
35246;DHT22;21379;50.962;6.960;2023-01-13T09:17:59;9.30;99.90
35246;DHT22;21379;50.962;6.960;2023-01-13T09:20:27;9.30;99.90
35246;DHT22;21379;50.962;6.960;2023-01-13T09:22:54;9.40;99.90
35246;DHT22;21379;50.962;6.960;2023-01-13T09:25:20;9.40;99.90
35246;DHT22;21379;50.962;6.960;2023-01-13T09:27:47;9.40;99.90
35246;DHT22;21379;50.962;6.960;2023-01-13T09:30:14;9.40;99.90
35246;DHT22;21379;50.962;6.960;2023-01-13T09:32:42;9.40;99.90
35246;DHT22;21379;50.962;6.960;2023-01-13T09:35:09;9.50;99.90
35246;DHT22;21379;50.962;6.960;2023-01-13T09:37:36;9.60;99.90
35246;DHT22;21379;50.962;6.960;2023-01-13T09:40:05;9.60;99.90
35246;DHT22;21379;50.962;6.960;2023-01-13T09:42:40;9.60;99.90
35246;DHT22;21379;50.962;6.960;2023-01-13T09:45:29;9.70;99.90
35246;DHT22;21379;50.962;6.960;2023-01-13T09:48:01;9.80;99.90
35246;DHT22;21379;50.962;6.960;2023-01-13T09:50:38;9.80;99.90
35246;DHT22;21379;50.962;6.960;2023-01-13T09:53:12;9.90;99.90
35246;DHT22;21379;50.962;6.960;2023-01-13T09:55:42;9.90;99.90
35246;DHT22;21379;50.962;6.960;2023-01-13T09:58:11;10.00;99.90
35246;DHT22;21379;50.962;6.960;2023-01-13T10:00:43;10.00;99.90
35246;DHT22;21379;50.962;6.960;2023-01-13T10:03:21;10.00;99.90
35246;DHT22;21379;50.962;6.960;2023-01-13T10:05:53;10.00;99.90
35246;DHT22;21379;50.962;6.960;2023-01-13T10:08:25;10.10;99.90
35246;DHT22;21379;50.962;6.960;2023-01-13T10:10:54;10.00;99.90
35246;DHT22;21379;50.962;6.960;2023-01-13T10:13:25;10.00;99.90
35246;DHT22;21379;50.962;6.960;2023-01-13T10:16:04;10.20;99.90
35246;DHT22;21379;50.962;6.960;2023-01-13T10:18:41;10.30;99.90
35246;DHT22;21379;50.962;6.960;2023-01-13T10:21:26;10.40;99.90
35246;DHT22;21379;50.962;6.960;2023-01-13T10:24:01;10.40;99.90
35246;DHT22;21379;50.962;6.960;2023-01-13T10:26:47;10.50;99.90
35246;DHT22;21379;50.962;6.960;2023-01-13T10:29:22;10.50;99.90
35246;DHT22;21379;50.962;6.960;2023-01-13T10:31:51;10.30;99.90
35246;DHT22;21379;50.962;6.960;2023-01-13T10:34:19;10.30;99.90
35246;DHT22;21379;50.962;6.960;2023-01-13T10:36:57;10.30;99.90
35246;DHT22;21379;50.962;6.960;2023-01-13T10:39:26;10.40;99.90
35246;DHT22;21379;50.962;6.960;2023-01-13T10:42:03;10.60;99.90
35246;DHT22;21379;50.962;6.960;2023-01-13T10:44:30;10.60;99.90
35246;DHT22;21379;50.962;6.960;2023-01-13T10:46:58;10.50;99.90
35246;DHT22;21379;50.962;6.960;2023-01-13T10:49:30;10.40;99.90
35246;DHT22;21379;50.962;6.960;2023-01-13T10:51:57;10.40;99.90
35246;DHT22;21379;50.962;6.960;2023-01-13T10:54:25;10.40;99.90
35246;DHT22;21379;50.962;6.960;2023-01-13T10:57:13;10.40;99.90
35246;DHT22;21379;50.962;6.960;2023-01-13T10:59:41;10.40;99.90
35246;DHT22;21379;50.962;6.960;2023-01-13T11:02:25;10.40;99.90
35246;DHT22;21379;50.962;6.960;2023-01-13T11:05:07;10.40;99.90
35246;DHT22;21379;50.962;6.960;2023-01-13T11:07:38;10.40;99.90
35246;DHT22;21379;50.962;6.960;2023-01-13T11:10:17;10.40;99.90
35246;DHT22;21379;50.962;6.960;2023-01-13T11:12:49;10.40;99.90
35246;DHT22;21379;50.962;6.960;2023-01-13T11:15:37;10.40;99.90
35246;DHT22;21379;50.962;6.960;2023-01-13T11:18:10;10.40;99.90
35246;DHT22;21379;50.962;6.960;2023-01-13T11:20:41;10.40;99.90
35246;DHT22;21379;50.962;6.960;2023-01-13T11:23:13;10.50;99.90
35246;DHT22;21379;50.962;6.960;2023-01-13T11:25:43;10.50;99.90
35246;DHT22;21379;50.962;6.960;2023-01-13T11:28:20;10.50;99.90
35246;DHT22;21379;50.962;6.960;2023-01-13T11:30:53;10.40;99.90
35246;DHT22;21379;50.962;6.960;2023-01-13T11:33:33;10.50;99.90
35246;DHT22;21379;50.962;6.960;2023-01-13T11:36:11;10.60;99.90
35246;DHT22;21379;50.962;6.960;2023-01-13T11:38:48;10.60;99.90
35246;DHT22;21379;50.962;6.960;2023-01-13T11:41:27;10.50;99.90
35246;DHT22;21379;50.962;6.960;2023-01-13T11:44:03;10.60;99.90
35246;DHT22;21379;50.962;6.960;2023-01-13T11:46:33;10.50;99.90
35246;DHT22;21379;50.962;6.960;2023-01-13T11:49:00;10.60;99.90
35246;DHT22;21379;50.962;6.960;2023-01-13T11:51:37;10.60;99.90
35246;DHT22;21379;50.962;6.960;2023-01-13T11:57:38;10.50;99.90
35246;DHT22;21379;50.962;6.960;2023-01-13T12:00:16;10.50;99.90
35246;DHT22;21379;50.962;6.960;2023-01-13T12:02:54;10.50;99.90
35246;DHT22;21379;50.962;6.960;2023-01-13T12:05:31;10.50;99.90
35246;DHT22;21379;50.962;6.960;2023-01-13T12:08:11;10.50;99.90
35246;DHT22;21379;50.962;6.960;2023-01-13T12:10:48;10.50;99.90
35246;DHT22;21379;50.962;6.960;2023-01-13T12:13:27;10.50;99.90
35246;DHT22;21379;50.962;6.960;2023-01-13T12:16:10;10.40;99.90
35246;DHT22;21379;50.962;6.960;2023-01-13T12:21:59;10.50;99.90
35246;DHT22;21379;50.962;6.960;2023-01-13T12:24:31;10.50;99.90
35246;DHT22;21379;50.962;6.960;2023-01-13T12:27:03;10.60;99.90
35246;DHT22;21379;50.962;6.960;2023-01-13T12:29:33;10.60;99.90
35246;DHT22;21379;50.962;6.960;2023-01-13T12:32:02;10.70;99.90
35246;DHT22;21379;50.962;6.960;2023-01-13T12:34:40;10.60;99.90
35246;DHT22;21379;50.962;6.960;2023-01-13T12:37:12;10.60;99.90
35246;DHT22;21379;50.962;6.960;2023-01-13T12:39:56;10.50;99.90
35246;DHT22;21379;50.962;6.960;2023-01-13T12:42:32;10.50;99.90
35246;DHT22;21379;50.962;6.960;2023-01-13T12:45:26;10.50;99.90
35246;DHT22;21379;50.962;6.960;2023-01-13T12:47:53;10.50;99.90
35246;DHT22;21379;50.962;6.960;2023-01-13T12:50:57;10.50;99.90
35246;DHT22;21379;50.962;6.960;2023-01-13T12:53:35;10.40;99.90
35246;DHT22;21379;50.962;6.960;2023-01-13T12:56:41;10.30;99.90
35246;DHT22;21379;50.962;6.960;2023-01-13T12:59:37;10.30;99.90
35246;DHT22;21379;50.962;6.960;2023-01-13T13:02:26;10.10;99.90
35246;DHT22;21379;50.962;6.960;2023-01-13T13:04:55;10.00;99.90
35246;DHT22;21379;50.962;6.960;2023-01-13T13:07:30;9.90;99.90
35246;DHT22;21379;50.962;6.960;2023-01-13T13:10:03;9.70;99.90
35246;DHT22;21379;50.962;6.960;2023-01-13T13:12:53;9.50;99.90
35246;DHT22;21379;50.962;6.960;2023-01-13T13:16:03;9.40;99.90
35246;DHT22;21379;50.962;6.960;2023-01-13T13:22:55;9.10;99.90
35246;DHT22;21379;50.962;6.960;2023-01-13T13:25:27;9.00;99.90
35246;DHT22;21379;50.962;6.960;2023-01-13T13:28:13;8.70;99.90
35246;DHT22;21379;50.962;6.960;2023-01-13T13:30:55;8.50;99.90
35246;DHT22;21379;50.962;6.960;2023-01-13T13:33:37;8.40;99.90
35246;DHT22;21379;50.962;6.960;2023-01-13T13:36:21;8.30;99.90
35246;DHT22;21379;50.962;6.960;2023-01-13T13:39:01;8.30;99.90
35246;DHT22;21379;50.962;6.960;2023-01-13T13:41:49;8.30;99.90
35246;DHT22;21379;50.962;6.960;2023-01-13T13:44:37;8.20;99.90
35246;DHT22;21379;50.962;6.960;2023-01-13T13:47:22;8.20;99.90
35246;DHT22;21379;50.962;6.960;2023-01-13T13:49:51;8.20;99.90
35246;DHT22;21379;50.962;6.960;2023-01-13T13:52:23;8.20;99.90
35246;DHT22;21379;50.962;6.960;2023-01-13T13:54:57;8.10;99.90
35246;DHT22;21379;50.962;6.960;2023-01-13T13:57:31;8.10;99.90
35246;DHT22;21379;50.962;6.960;2023-01-13T13:59:59;8.10;99.90
35246;DHT22;21379;50.962;6.960;2023-01-13T14:02:28;8.20;99.90
35246;DHT22;21379;50.962;6.960;2023-01-13T14:05:18;8.20;99.90
35246;DHT22;21379;50.962;6.960;2023-01-13T14:07:48;8.30;99.90
35246;DHT22;21379;50.962;6.960;2023-01-13T14:10:18;8.30;99.90
35246;DHT22;21379;50.962;6.960;2023-01-13T14:12:46;8.30;99.90
35246;DHT22;21379;50.962;6.960;2023-01-13T14:15:24;8.40;99.90
35246;DHT22;21379;50.962;6.960;2023-01-13T14:17:52;8.40;99.90
35246;DHT22;21379;50.962;6.960;2023-01-13T14:20:19;8.50;99.90
35246;DHT22;21379;50.962;6.960;2023-01-13T14:22:47;8.50;99.90
35246;DHT22;21379;50.962;6.960;2023-01-13T14:25:29;8.50;99.90
35246;DHT22;21379;50.962;6.960;2023-01-13T14:27:57;8.60;99.90
35246;DHT22;21379;50.962;6.960;2023-01-13T14:30:26;8.60;99.90
35246;DHT22;21379;50.962;6.960;2023-01-13T14:32:53;8.60;99.90
35246;DHT22;21379;50.962;6.960;2023-01-13T14:35:21;8.60;99.90
35246;DHT22;21379;50.962;6.960;2023-01-13T14:37:49;8.70;99.90
35246;DHT22;21379;50.962;6.960;2023-01-13T14:40:38;8.70;99.90
35246;DHT22;21379;50.962;6.960;2023-01-13T14:43:12;8.80;99.90
35246;DHT22;21379;50.962;6.960;2023-01-13T14:45:42;8.80;99.90
35246;DHT22;21379;50.962;6.960;2023-01-13T14:48:18;8.80;99.90
35246;DHT22;21379;50.962;6.960;2023-01-13T14:50:46;8.80;99.90
35246;DHT22;21379;50.962;6.960;2023-01-13T14:53:30;8.80;99.90
35246;DHT22;21379;50.962;6.960;2023-01-13T15:01:43;8.90;99.90
35246;DHT22;21379;50.962;6.960;2023-01-13T15:04:20;8.90;99.90
35246;DHT22;21379;50.962;6.960;2023-01-13T15:06:51;8.90;99.90
35246;DHT22;21379;50.962;6.960;2023-01-13T15:09:23;8.90;99.90
35246;DHT22;21379;50.962;6.960;2023-01-13T15:11:51;8.90;99.90
35246;DHT22;21379;50.962;6.960;2023-01-13T15:14:23;8.80;99.90
35246;DHT22;21379;50.962;6.960;2023-01-13T15:16:51;8.80;99.90
35246;DHT22;21379;50.962;6.960;2023-01-13T15:19:18;8.80;99.90
35246;DHT22;21379;50.962;6.960;2023-01-13T15:21:44;8.80;99.90
35246;DHT22;21379;50.962;6.960;2023-01-13T15:24:11;8.80;99.90
35246;DHT22;21379;50.962;6.960;2023-01-13T15:26:39;8.70;99.90
35246;DHT22;21379;50.962;6.960;2023-01-13T15:29:11;8.60;99.90
35246;DHT22;21379;50.962;6.960;2023-01-13T15:31:39;8.70;99.90
35246;DHT22;21379;50.962;6.960;2023-01-13T15:34:06;8.70;99.90
35246;DHT22;21379;50.962;6.960;2023-01-13T15:36:33;8.70;99.90
35246;DHT22;21379;50.962;6.960;2023-01-13T15:39:01;8.70;99.90
35246;DHT22;21379;50.962;6.960;2023-01-13T15:41:28;8.80;99.90
35246;DHT22;21379;50.962;6.960;2023-01-13T15:44:15;8.70;99.90
35246;DHT22;21379;50.962;6.960;2023-01-13T15:47:01;8.80;99.90
35246;DHT22;21379;50.962;6.960;2023-01-13T15:49:30;8.80;99.90
35246;DHT22;21379;50.962;6.960;2023-01-13T15:52:00;8.80;99.90
35246;DHT22;21379;50.962;6.960;2023-01-13T15:54:27;8.80;99.90
35246;DHT22;21379;50.962;6.960;2023-01-13T15:56:54;8.70;99.90
35246;DHT22;21379;50.962;6.960;2023-01-13T15:59:25;8.70;99.90
35246;DHT22;21379;50.962;6.960;2023-01-13T16:01:52;8.70;99.90
35246;DHT22;21379;50.962;6.960;2023-01-13T16:04:19;8.70;99.90
35246;DHT22;21379;50.962;6.960;2023-01-13T16:06:46;8.70;99.90
35246;DHT22;21379;50.962;6.960;2023-01-13T16:09:13;8.60;99.90
35246;DHT22;21379;50.962;6.960;2023-01-13T16:11:41;8.60;99.90
35246;DHT22;21379;50.962;6.960;2023-01-13T16:14:08;8.60;99.90
35246;DHT22;21379;50.962;6.960;2023-01-13T16:16:36;8.60;99.90
35246;DHT22;21379;50.962;6.960;2023-01-13T16:19:03;8.50;99.90
35246;DHT22;21379;50.962;6.960;2023-01-13T16:21:30;8.60;99.90
35246;DHT22;21379;50.962;6.960;2023-01-13T16:23:57;8.50;99.90
35246;DHT22;21379;50.962;6.960;2023-01-13T16:26:28;8.60;99.90
35246;DHT22;21379;50.962;6.960;2023-01-13T16:28:56;8.60;99.90
35246;DHT22;21379;50.962;6.960;2023-01-13T16:31:25;8.60;99.90
35246;DHT22;21379;50.962;6.960;2023-01-13T16:33:54;8.70;99.90